CheckWX is a tool to help pilots better visualize weather data.  It is not intended as a substitute for an official pre-flight weather briefing.

05:27:53 UTC

EGGW METAR
London Luton Airport
London, United Kingdom
Current

38 mins ago

EGGW 180450Z AUTO 21004KT 9999 NCD 12/12 Q1002
Observed
Aug-18 @ 04:50 UTC
Wind
  • 210° at 4 KTS
Visibility
10,000+ meters
Flight Rules
VFR
Cloud Levels
  • Clear skies
Temperature
12°C / 54°F
Dewpoint
12°C / 54°F
Humidity
100%
Altimeter
29.59" Hg
Pressure
1001.92 hPa
Previous

1 hour ago

EGGW 180420Z AUTO 20005KT 9999 NCD 13/12 Q1003
Observed
Aug-18 @ 04:20 UTC
Wind
  • 200° at 5 KTS
Visibility
10,000+ meters
Flight Rules
VFR
Cloud Levels
  • Clear skies
Temperature
13°C / 55°F
Dewpoint
12°C / 54°F
Humidity
94%
Altimeter
29.62" Hg
Pressure
1002.92 hPa
Previous

2 hours ago

EGGW 180350Z AUTO 21005KT 9999 -RA NCD 13/12 Q1003
Observed
Aug-18 @ 03:50 UTC
Wind
  • 210° at 5 KTS
Visibility
10,000+ meters
Flight Rules
VFR
Conditions
Light Rain
Cloud Levels
  • Clear skies
Temperature
13°C / 55°F
Dewpoint
12°C / 54°F
Humidity
94%
Altimeter
29.62" Hg
Pressure
1002.92 hPa